Gaschem Jade — ELSU9 — position and weather

sailwx.info

Track history (hours):
 
Tides and Currents Weather Stations Pressure Air Temp Water Temp Dewpoint Dewpoint Depression Visibility Wind Speed Wind Dir Waves Ship Positions

Gaschem Jade

Last reported at 2016-Jul-29 17:33 UTC. Time now 2016-Jul-29 17:51 UTC.
Position N 36°07' W 000°06'.

Length 113.2 m; beam 15.9 m; draft 6.1 m.

Type: Ship. MMSI: 636090168.

Date/timePositionNaut miles runAvg speedWind from/ knotsBaromVisibWave heightAir tempDewpointWater temp
2016-Jul-29 17:33N 36°07' W 000°06'11 3.3
2016-Jul-29 14:21N 35°56' W 000°07'1 1.0
2016-Jul-29 13:14N 35°57' W 000°06'1 1.0
2016-Jul-29 12:33N 35°58' W 000°06'251 5.6
2016-Jul-27 15:33N 36°01' W 005°16'7 6.6
2016-Jul-27 14:33N 36°05' W 005°22'1 1.4
2016-Jul-27 13:33N 36°04' W 005°22'4 4.3
2016-Jul-27 12:33N 35°60' W 005°23'18711.0
2016-Jul-26 19:33N 33°57' W 008°15'54 1.6
2016-Jul-25 09:33N 33°08' W 008°41'9 8.6
2016-Jul-25 08:33N 33°17' W 008°42'1512.6
2016-Jul-25 07:23N 33°31' W 008°37'3712.1
2016-Jul-25 04:18N 34°01' W 008°10'1512.2
2016-Jul-25 03:04N 34°12' W 007°58'15812.2
2016-Jul-24 14:04N 35°57' W 005°34'612.5
2016-Jul-24 13:33N 35°59' W 005°27'255 5.3
2016-Jul-22 13:31N 35°53' W 000°12'1 1.0
2016-Jul-22 12:04N 35°54' W 000°12'2 1.1
2016-Jul-22 10:15N 35°56' W 000°11'11 1.0
2016-Jul-21 23:18N 36°06' W 000°03'0 0.2
2016-Jul-21 22:24N 36°06' W 000°03'0 0.3
2016-Jul-21 21:33N 36°06' W 000°03'1310.6
2016-Jul-21 20:19N 35°56' W 000°14'3 0.3
2016-Jul-21 12:33N 35°53' W 000°14'6 2.0
2016-Jul-21 09:25N 35°59' W 000°12'1 0.7
2016-Jul-21 08:30N 35°60' W 000°11'1 0.7
2016-Jul-21 06:33N 36°00' W 000°10'  
Track history (hours):
 
Tides and Currents Weather Stations Pressure Air Temp Water Temp Dewpoint Dewpoint Depression Visibility Wind Speed Wind Dir Waves Ship Positions

Gaschem Jade

Last reported at 2016-Jul-29 17:33 UTC. Time now 2016-Jul-29 17:51 UTC.
Position N 36°07' W 000°06'.

Length 113.2 m; beam 15.9 m; draft 6.1 m.

Type: Ship. MMSI: 636090168.

Date/timePositionNaut miles runAvg speedWind from/ knotsBaromVisibWave heightAir tempDewpointWater temp
2016-Jul-29 17:33N 36°07' W 000°06'11 3.3
2016-Jul-29 14:21N 35°56' W 000°07'1 1.0
2016-Jul-29 13:14N 35°57' W 000°06'1 1.0
2016-Jul-29 12:33N 35°58' W 000°06'251 5.6
2016-Jul-27 15:33N 36°01' W 005°16'7 6.6
2016-Jul-27 14:33N 36°05' W 005°22'1 1.4
2016-Jul-27 13:33N 36°04' W 005°22'4 4.3
2016-Jul-27 12:33N 35°60' W 005°23'18711.0
2016-Jul-26 19:33N 33°57' W 008°15'54 1.6
2016-Jul-25 09:33N 33°08' W 008°41'9 8.6
2016-Jul-25 08:33N 33°17' W 008°42'1512.6
2016-Jul-25 07:23N 33°31' W 008°37'3712.1
2016-Jul-25 04:18N 34°01' W 008°10'1512.2
2016-Jul-25 03:04N 34°12' W 007°58'15812.2
2016-Jul-24 14:04N 35°57' W 005°34'612.5
2016-Jul-24 13:33N 35°59' W 005°27'255 5.3
2016-Jul-22 13:31N 35°53' W 000°12'1 1.0
2016-Jul-22 12:04N 35°54' W 000°12'2 1.1
2016-Jul-22 10:15N 35°56' W 000°11'11 1.0
2016-Jul-21 23:18N 36°06' W 000°03'0 0.2
2016-Jul-21 22:24N 36°06' W 000°03'0 0.3
2016-Jul-21 21:33N 36°06' W 000°03'1310.6
2016-Jul-21 20:19N 35°56' W 000°14'3 0.3
2016-Jul-21 12:33N 35°53' W 000°14'6 2.0
2016-Jul-21 09:25N 35°59' W 000°12'1 0.7
2016-Jul-21 08:30N 35°60' W 000°11'1 0.7
2016-Jul-21 06:33N 36°00' W 000°10'  

Dump ship's entire track history